createdAt,value
2018-11-03T00:00:59.762Z,0.00
2018-11-03T00:02:00.022Z,0.00
2018-11-03T00:03:00.413Z,0.00
2018-11-03T00:04:00.830Z,0.00
2018-11-03T00:05:01.224Z,0.00
2018-11-03T00:06:01.539Z,0.00
2018-11-03T00:07:02.284Z,0.00
2018-11-03T00:08:02.851Z,0.00
2018-11-03T00:09:02.790Z,0.00
2018-11-03T00:10:03.911Z,0.00
2018-11-03T00:11:04.408Z,0.00
2018-11-03T00:12:04.933Z,0.00
2018-11-03T00:13:04.728Z,0.00
2018-11-03T00:14:05.348Z,0.00
2018-11-03T00:15:05.569Z,0.00
2018-11-03T00:16:05.752Z,0.00
2018-11-03T00:17:06.090Z,0.00
2018-11-03T00:18:06.301Z,0.00
2018-11-03T00:19:06.403Z,0.00
2018-11-03T00:20:06.318Z,0.00
2018-11-03T00:21:06.918Z,0.00
2018-11-03T00:22:06.794Z,0.00
2018-11-03T00:23:07.303Z,0.00
2018-11-03T00:24:07.494Z,0.00
2018-11-03T00:25:07.618Z,0.00
2018-11-03T00:26:07.741Z,0.00
2018-11-03T00:27:08.489Z,0.00
2018-11-03T00:28:08.488Z,0.00
2018-11-03T00:29:09.143Z,0.00
2018-11-03T00:30:09.290Z,0.00
2018-11-03T00:31:09.187Z,0.00
2018-11-03T00:32:09.702Z,0.00
2018-11-03T00:33:09.704Z,0.00
2018-11-03T00:34:10.018Z,0.00
2018-11-03T00:35:10.437Z,0.00
2018-11-03T00:36:10.646Z,0.00
2018-11-03T00:37:11.096Z,0.00
2018-11-03T00:38:11.230Z,0.00
2018-11-03T00:39:11.586Z,0.00
2018-11-03T00:40:12.174Z,0.00
2018-11-03T00:41:12.707Z,0.00
2018-11-03T00:42:13.089Z,0.00
2018-11-03T00:44:13.252Z,0.00
2018-11-03T00:45:13.755Z,0.00
2018-11-03T00:46:13.164Z,0.00
2018-11-03T00:47:13.588Z,0.00
2018-11-03T00:48:13.997Z,0.00
2018-11-03T00:49:14.313Z,0.00
2018-11-03T00:50:15.426Z,0.00
2018-11-03T00:51:14.845Z,0.00
2018-11-03T00:52:15.339Z,0.00
2018-11-03T00:53:15.806Z,0.00
2018-11-03T00:54:16.465Z,0.00
2018-11-03T00:55:17.037Z,0.00
2018-11-03T00:56:16.378Z,0.00
2018-11-03T00:57:16.747Z,0.00
2018-11-03T00:58:17.212Z,0.00
2018-11-03T00:59:17.535Z,0.00
2018-11-03T01:00:17.904Z,0.00
2018-11-03T01:01:19.292Z,0.00
2018-11-03T01:02:19.488Z,0.00
2018-11-03T01:03:19.701Z,0.00
2018-11-03T01:04:20.116Z,0.00
2018-11-03T01:05:20.325Z,0.00
2018-11-03T01:06:20.756Z,0.00
2018-11-03T01:07:21.054Z,0.00
2018-11-03T01:08:21.413Z,0.00
2018-11-03T01:09:21.500Z,0.00
2018-11-03T01:10:21.700Z,0.00
2018-11-03T01:11:22.008Z,0.00
2018-11-03T01:12:22.091Z,0.00
2018-11-03T01:13:22.119Z,0.00
2018-11-03T01:14:22.528Z,0.00
2018-11-03T01:15:22.416Z,0.00
2018-11-03T01:16:22.915Z,0.00
2018-11-03T01:17:23.017Z,0.00
2018-11-03T01:18:23.591Z,0.00
2018-11-03T01:19:23.286Z,0.00
2018-11-03T01:20:23.606Z,0.00
2018-11-03T01:21:23.804Z,0.00
2018-11-03T01:22:23.952Z,0.00
2018-11-03T01:23:24.266Z,0.00
2018-11-03T01:24:24.489Z,0.00
2018-11-03T01:25:24.766Z,0.00
2018-11-03T01:26:24.625Z,0.00
2018-11-03T01:27:25.007Z,0.00
2018-11-03T01:28:25.517Z,0.00
2018-11-03T01:29:25.925Z,0.00
2018-11-03T01:30:26.247Z,0.00
2018-11-03T01:31:26.569Z,0.00
2018-11-03T01:32:27.188Z,0.00
2018-11-03T01:33:26.990Z,0.00
2018-11-03T01:34:27.397Z,0.00
2018-11-03T01:35:27.810Z,0.00
2018-11-03T01:36:28.238Z,0.00
2018-11-03T01:37:28.831Z,0.00
2018-11-03T01:38:28.864Z,0.00
2018-11-03T01:39:28.771Z,0.00
2018-11-03T01:40:29.236Z,0.00
2018-11-03T01:41:29.687Z,0.00
2018-11-03T01:42:30.195Z,0.00
2018-11-03T01:43:30.479Z,0.00
2018-11-03T01:44:30.781Z,0.00
2018-11-03T01:45:31.283Z,0.00
2018-11-03T01:46:31.304Z,0.00
2018-11-03T01:47:31.691Z,0.00
2018-11-03T01:48:32.029Z,0.00
2018-11-03T01:49:32.669Z,0.00
2018-11-03T01:50:32.661Z,0.00
2018-11-03T01:51:33.140Z,0.00
2018-11-03T01:52:34.255Z,0.00
2018-11-03T01:53:34.363Z,0.00
2018-11-03T01:54:34.372Z,0.00
2018-11-03T01:55:34.587Z,0.00
2018-11-03T01:56:34.816Z,0.00
2018-11-03T01:57:35.211Z,0.00
2018-11-03T01:58:35.191Z,0.00
2018-11-03T01:59:35.737Z,0.00
2018-11-03T02:00:35.330Z,0.00
2018-11-03T02:01:35.655Z,0.00
2018-11-03T02:02:36.166Z,0.00
2018-11-03T02:03:36.368Z,0.00
2018-11-03T02:04:36.794Z,0.00
2018-11-03T02:05:36.898Z,0.00
2018-11-03T02:06:36.930Z,0.00
2018-11-03T02:07:36.908Z,0.00
2018-11-03T02:08:36.901Z,0.00
2018-11-03T02:09:37.269Z,0.00
2018-11-03T02:10:37.585Z,0.00
2018-11-03T02:12:37.788Z,0.00
2018-11-03T02:13:38.074Z,0.00
2018-11-03T02:14:38.403Z,0.00
2018-11-03T02:15:38.759Z,0.00
2018-11-03T02:16:38.925Z,0.00
2018-11-03T02:17:39.077Z,0.00
2018-11-03T02:18:39.302Z,0.00
2018-11-03T02:19:39.115Z,0.00
2018-11-03T02:20:39.489Z,0.00
2018-11-03T02:21:39.810Z,0.00
2018-11-03T02:22:40.366Z,0.00
2018-11-03T02:23:40.246Z,0.00
2018-11-03T02:24:40.650Z,0.00
2018-11-03T02:25:40.975Z,0.00
2018-11-03T02:26:41.559Z,0.00
2018-11-03T02:27:41.382Z,0.00
2018-11-03T02:28:41.814Z,0.00
2018-11-03T02:29:41.835Z,0.00
2018-11-03T02:30:42.217Z,0.00
2018-11-03T02:31:42.594Z,0.00
2018-11-03T02:32:42.966Z,0.00
2018-11-03T02:33:43.372Z,0.00
2018-11-03T02:34:43.827Z,0.00
2018-11-03T02:35:44.380Z,0.00
2018-11-03T02:36:44.320Z,0.00
2018-11-03T02:37:44.760Z,0.00
2018-11-03T02:38:45.131Z,0.00
2018-11-03T02:39:45.553Z,0.00
2018-11-03T02:40:45.992Z,0.00
2018-11-03T02:41:46.382Z,0.00
2018-11-03T02:42:46.703Z,0.00
2018-11-03T02:43:47.095Z,0.00
2018-11-03T02:44:47.424Z,0.00
2018-11-03T02:45:47.731Z,0.00
2018-11-03T02:46:48.538Z,0.00
2018-11-03T02:47:49.061Z,0.00
2018-11-03T02:48:49.159Z,0.00
2018-11-03T02:49:49.373Z,0.00
2018-11-03T02:50:49.591Z,0.00
2018-11-03T02:51:49.589Z,0.00
2018-11-03T02:52:50.529Z,0.00
2018-11-03T02:53:50.832Z,0.00
2018-11-03T02:54:51.030Z,0.00
2018-11-03T02:55:51.259Z,0.00
2018-11-03T02:56:51.466Z,0.00
2018-11-03T02:57:51.791Z,0.00
2018-11-03T02:58:51.889Z,0.00
2018-11-03T02:59:52.094Z,0.00
2018-11-03T03:00:52.098Z,0.00
2018-11-03T03:01:51.998Z,0.00
2018-11-03T03:02:52.372Z,0.00
2018-11-03T03:03:52.642Z,0.00
2018-11-03T03:04:52.839Z,0.00
2018-11-03T03:05:53.052Z,0.00
2018-11-03T03:06:53.270Z,0.00
2018-11-03T03:07:53.583Z,0.00
2018-11-03T03:08:53.805Z,0.00
2018-11-03T03:09:53.946Z,0.00
2018-11-03T03:10:54.045Z,0.00
2018-11-03T03:11:54.156Z,0.00
2018-11-03T03:12:54.216Z,0.00
2018-11-03T03:13:54.143Z,0.00
2018-11-03T03:14:54.251Z,0.00
2018-11-03T03:15:54.595Z,0.00
2018-11-03T03:16:55.285Z,0.00
2018-11-03T03:17:55.120Z,0.00
2018-11-03T03:18:55.435Z,0.00
2018-11-03T03:19:55.905Z,0.00
2018-11-03T03:20:56.273Z,0.00
2018-11-03T03:21:56.706Z,0.00
2018-11-03T03:22:57.341Z,0.00
2018-11-03T03:23:57.295Z,0.00
2018-11-03T03:24:57.797Z,0.00
2018-11-03T03:25:58.127Z,0.00
2018-11-03T03:26:58.458Z,0.00
2018-11-03T03:27:58.911Z,0.00
2018-11-03T03:28:59.352Z,0.00
2018-11-03T03:29:59.704Z,0.00
2018-11-03T03:31:00.129Z,0.00
2018-11-03T03:32:00.525Z,0.00
2018-11-03T03:33:00.857Z,0.00
2018-11-03T03:34:01.284Z,0.00
2018-11-03T03:35:01.696Z,0.00
2018-11-03T03:36:02.161Z,0.00
2018-11-03T03:37:02.394Z,0.00
2018-11-03T03:38:02.826Z,0.00
2018-11-03T03:39:03.934Z,0.00
2018-11-03T03:40:04.563Z,0.00
2018-11-03T03:41:04.550Z,0.00
2018-11-03T03:42:04.972Z,0.00
2018-11-03T03:43:04.967Z,0.00
2018-11-03T03:44:05.909Z,0.00
2018-11-03T03:45:06.451Z,0.00
2018-11-03T03:46:06.322Z,0.00
2018-11-03T03:47:06.636Z,0.00
2018-11-03T03:48:06.752Z,0.00
2018-11-03T03:49:07.072Z,0.00
2018-11-03T03:50:07.353Z,0.00
2018-11-03T03:51:07.379Z,0.00
2018-11-03T03:52:07.253Z,0.00
2018-11-03T03:53:07.498Z,0.00
2018-11-03T03:54:07.697Z,0.00
2018-11-03T03:55:07.891Z,0.00
2018-11-03T03:56:08.028Z,0.00
2018-11-03T03:57:08.239Z,0.00
2018-11-03T03:58:08.043Z,0.00
2018-11-03T03:59:09.097Z,0.00
2018-11-03T04:00:09.786Z,0.00
2018-11-03T04:01:09.076Z,0.00
2018-11-03T04:02:09.091Z,0.00
2018-11-03T04:03:08.865Z,0.00
2018-11-03T04:04:09.304Z,0.00
2018-11-03T04:05:09.830Z,0.00
2018-11-03T04:06:09.665Z,0.00
2018-11-03T04:07:10.084Z,0.00
2018-11-03T04:08:10.500Z,0.00
2018-11-03T04:09:10.942Z,0.00
2018-11-03T04:10:11.607Z,0.00
2018-11-03T04:11:11.460Z,0.00
2018-11-03T04:12:11.856Z,0.00
2018-11-03T04:13:13.298Z,0.00
2018-11-03T04:14:12.649Z,0.00
2018-11-03T04:15:13.277Z,0.00
2018-11-03T04:16:13.249Z,0.00
2018-11-03T04:17:13.658Z,0.00
2018-11-03T04:18:14.064Z,0.00
2018-11-03T04:19:14.501Z,0.00
2018-11-03T04:20:14.498Z,0.00
2018-11-03T04:21:15.005Z,0.00
2018-11-03T04:22:15.405Z,0.00
2018-11-03T04:23:15.976Z,0.00
2018-11-03T04:24:15.795Z,0.00
2018-11-03T04:25:16.589Z,0.00
2018-11-03T04:26:16.445Z,0.00
2018-11-03T04:27:16.868Z,0.00
2018-11-03T04:28:17.290Z,0.00
2018-11-03T04:29:17.712Z,0.00
2018-11-03T04:30:18.933Z,0.00
2018-11-03T04:31:19.007Z,0.00
2018-11-03T04:32:19.381Z,0.00
2018-11-03T04:33:19.539Z,0.00
2018-11-03T04:34:19.962Z,0.00
2018-11-03T04:35:20.268Z,0.00
2018-11-03T04:36:20.784Z,0.00
2018-11-03T04:37:20.485Z,0.00
2018-11-03T04:38:21.000Z,0.00
2018-11-03T04:39:21.229Z,0.00
2018-11-03T04:40:21.539Z,0.00
2018-11-03T04:41:21.742Z,0.00
2018-11-03T04:42:21.931Z,0.00
2018-11-03T04:43:21.951Z,0.00
2018-11-03T04:44:21.999Z,0.00
2018-11-03T04:45:21.931Z,0.00
2018-11-03T04:46:22.280Z,0.00
2018-11-03T04:47:22.591Z,0.00
2018-11-03T04:48:22.700Z,0.00
2018-11-03T04:49:23.061Z,0.00
2018-11-03T04:50:22.887Z,0.00
2018-11-03T04:51:23.746Z,0.00
2018-11-03T04:52:24.185Z,0.00
2018-11-03T04:53:24.264Z,0.00
2018-11-03T04:54:24.268Z,0.00
2018-11-03T04:55:24.764Z,0.00
2018-11-03T04:56:24.610Z,0.00
2018-11-03T04:57:24.917Z,0.00
2018-11-03T04:58:25.052Z,0.00
2018-11-03T04:59:25.467Z,0.00
2018-11-03T05:00:25.899Z,0.00
2018-11-03T05:01:26.481Z,0.00
2018-11-03T05:02:26.323Z,0.00
2018-11-03T05:03:26.834Z,0.00
2018-11-03T05:04:26.638Z,0.00
2018-11-03T05:05:27.073Z,0.00
2018-11-03T05:06:27.508Z,0.00
2018-11-03T05:07:27.802Z,0.00
2018-11-03T05:08:28.199Z,0.00
2018-11-03T05:09:28.516Z,0.00
2018-11-03T05:10:34.196Z,0.00
2018-11-03T05:11:28.897Z,0.00
2018-11-03T05:12:29.281Z,0.00
2018-11-03T05:13:29.662Z,0.00
2018-11-03T05:14:30.036Z,0.00
2018-11-03T05:15:30.374Z,0.00
2018-11-03T05:16:30.405Z,0.00
2018-11-03T05:17:31.018Z,0.00
2018-11-03T05:18:31.039Z,0.00
2018-11-03T05:19:31.399Z,0.00
2018-11-03T05:20:31.747Z,0.00
2018-11-03T05:21:32.133Z,0.00
2018-11-03T05:22:32.505Z,0.00
2018-11-03T05:23:32.777Z,0.00
2018-11-03T05:24:32.949Z,0.00
2018-11-03T05:25:34.283Z,0.00
2018-11-03T05:26:34.731Z,0.00
2018-11-03T05:27:34.936Z,0.00
2018-11-03T05:28:35.019Z,0.00
2018-11-03T05:29:35.128Z,0.00
2018-11-03T05:30:35.648Z,0.00
2018-11-03T05:31:36.070Z,0.00
2018-11-03T05:32:36.177Z,0.00
2018-11-03T05:33:36.180Z,0.00
2018-11-03T05:34:36.108Z,0.00
2018-11-03T05:35:36.501Z,0.00
2018-11-03T05:36:36.721Z,0.00
2018-11-03T05:37:36.912Z,0.00
2018-11-03T05:38:37.225Z,1.00
2018-11-03T05:39:37.319Z,0.00
2018-11-03T05:40:37.266Z,0.00
2018-11-03T05:41:37.037Z,1.00
2018-11-03T05:42:37.292Z,1.00
2018-11-03T05:43:37.461Z,1.00
2018-11-03T05:44:37.652Z,2.00
2018-11-03T05:45:37.847Z,2.00
2018-11-03T05:46:38.110Z,2.00
2018-11-03T05:47:38.049Z,3.00
2018-11-03T05:48:38.221Z,3.00
2018-11-03T05:49:38.423Z,4.00
2018-11-03T05:50:38.631Z,5.00
2018-11-03T05:51:38.805Z,6.00
2018-11-03T05:52:38.986Z,7.00
2018-11-03T05:53:39.238Z,8.00
2018-11-03T05:54:39.162Z,10.00
2018-11-03T05:55:39.538Z,13.00
2018-11-03T05:56:39.835Z,16.00
2018-11-03T05:57:40.131Z,18.00
2018-11-03T05:58:40.465Z,23.00
2018-11-03T05:59:40.761Z,27.00
2018-11-03T06:00:41.034Z,33.00
2018-11-03T06:01:41.359Z,39.00
2018-11-03T06:02:41.705Z,46.00
2018-11-03T06:03:42.098Z,53.00
2018-11-03T06:04:42.454Z,61.00
2018-11-03T06:05:42.812Z,71.00
2018-11-03T06:06:43.129Z,81.00
2018-11-03T06:07:44.508Z,94.00
2018-11-03T06:08:43.847Z,108.00
2018-11-03T06:09:44.390Z,122.00
2018-11-03T06:10:44.465Z,139.00
2018-11-03T06:11:44.881Z,158.00
2018-11-03T06:12:45.348Z,177.00
2018-11-03T06:13:45.627Z,198.00
2018-11-03T06:14:46.076Z,221.00
2018-11-03T06:15:46.494Z,245.00
2018-11-03T06:16:46.826Z,271.00
2018-11-03T06:17:47.138Z,296.00
2018-11-03T06:18:47.461Z,325.00
2018-11-03T06:19:47.946Z,354.00
2018-11-03T06:20:49.187Z,384.00
2018-11-03T06:21:49.313Z,416.00
2018-11-03T06:22:49.826Z,448.00
2018-11-03T06:23:50.232Z,482.00
2018-11-03T06:24:50.544Z,516.00
2018-11-03T06:25:50.550Z,554.00
2018-11-03T06:26:51.102Z,590.00
2018-11-03T06:27:50.936Z,627.00
2018-11-03T06:28:51.182Z,667.00
2018-11-03T06:29:51.305Z,705.00
2018-11-03T06:30:51.503Z,742.00
2018-11-03T06:31:51.619Z,780.00
2018-11-03T06:32:51.729Z,819.00
2018-11-03T06:33:51.817Z,861.00
2018-11-03T06:34:51.637Z,902.00
2018-11-03T06:35:52.089Z,945.00
2018-11-03T06:36:51.985Z,990.00
2018-11-03T06:37:52.743Z,1038.00
2018-11-03T06:38:52.940Z,1089.00
2018-11-03T06:39:53.199Z,1133.00
2018-11-03T06:40:53.296Z,1180.00
2018-11-03T06:41:53.397Z,1231.00
2018-11-03T06:42:53.646Z,1278.00
2018-11-03T06:43:53.879Z,1327.00
2018-11-03T06:44:54.303Z,1376.00
2018-11-03T06:45:54.237Z,1428.00
2018-11-03T06:46:54.615Z,1475.00
2018-11-03T06:47:55.226Z,1517.00
2018-11-03T06:48:55.140Z,1564.00
2018-11-03T06:49:55.286Z,1611.00
2018-11-03T06:50:55.667Z,1663.00
2018-11-03T06:51:55.979Z,1716.00
2018-11-03T06:52:56.298Z,1776.00
2018-11-03T06:53:56.716Z,1818.00
2018-11-03T06:54:57.107Z,1869.00
2018-11-03T06:55:57.574Z,1920.00
2018-11-03T06:56:57.869Z,1973.00
2018-11-03T06:57:58.430Z,2025.00
2018-11-03T06:58:58.241Z,2088.00
2018-11-03T06:59:58.572Z,2146.00
2018-11-03T07:00:58.891Z,2193.00
2018-11-03T07:01:59.703Z,2257.00
2018-11-03T07:02:59.792Z,2306.00
2018-11-03T07:03:59.805Z,2365.00
2018-11-03T07:04:59.627Z,2428.00
2018-11-03T07:05:59.945Z,2497.00
2018-11-03T07:07:00.261Z,2572.00
2018-11-03T07:08:00.842Z,2641.00
2018-11-03T07:09:00.762Z,2712.00
2018-11-03T07:10:01.001Z,2791.00
2018-11-03T07:11:01.433Z,2862.00
2018-11-03T07:12:01.921Z,2938.00
2018-11-03T07:13:02.595Z,3009.00
2018-11-03T07:14:02.635Z,3090.00
2018-11-03T07:15:02.715Z,3182.00
2018-11-03T07:16:03.333Z,3296.00
2018-11-03T07:17:03.910Z,3380.00
2018-11-03T07:18:04.312Z,3452.00
2018-11-03T07:19:04.404Z,3510.00
2018-11-03T07:20:04.828Z,3559.00
2018-11-03T07:21:04.733Z,3616.00
2018-11-03T07:22:04.760Z,3652.00
2018-11-03T07:23:05.063Z,3692.00
2018-11-03T07:24:05.469Z,3760.00
2018-11-03T07:25:05.577Z,3830.00
2018-11-03T07:26:05.586Z,3885.00
2018-11-03T07:27:05.885Z,3899.00
2018-11-03T07:28:06.630Z,3918.00
2018-11-03T07:29:06.628Z,3958.00
2018-11-03T07:30:07.118Z,4024.00
2018-11-03T07:31:07.400Z,4083.00
2018-11-03T07:32:07.502Z,4139.00
2018-11-03T07:33:07.620Z,4198.00
2018-11-03T07:34:07.491Z,4232.00
2018-11-03T07:35:08.085Z,4280.00
2018-11-03T07:36:08.107Z,4345.00
2018-11-03T07:37:07.900Z,4392.00
2018-11-03T07:38:08.297Z,4343.00
2018-11-03T07:39:09.172Z,4356.00
2018-11-03T07:40:09.218Z,4370.00
2018-11-03T07:41:09.734Z,4410.00
2018-11-03T07:42:09.308Z,4467.00
2018-11-03T07:43:09.628Z,4446.00
2018-11-03T07:44:10.203Z,4364.00
2018-11-03T07:45:10.146Z,4345.00
2018-11-03T07:46:10.499Z,4476.00
2018-11-03T07:47:10.908Z,4658.00
2018-11-03T07:48:11.366Z,4756.00
2018-11-03T07:49:11.775Z,4685.00
2018-11-03T07:50:11.910Z,4530.00
2018-11-03T07:51:13.450Z,4502.00
2018-11-03T07:52:12.892Z,4484.00
2018-11-03T07:53:13.288Z,4524.00
2018-11-03T07:54:13.844Z,4717.00
2018-11-03T07:55:14.164Z,4850.00
2018-11-03T07:56:14.006Z,4866.00
2018-11-03T07:57:14.289Z,4878.00
2018-11-03T07:58:14.636Z,4852.00
2018-11-03T07:59:15.059Z,4886.00
2018-11-03T08:00:16.209Z,4937.00
2018-11-03T08:01:15.563Z,4923.00
2018-11-03T08:02:16.252Z,4938.00
2018-11-03T08:03:16.254Z,4944.00
2018-11-03T08:04:16.159Z,4968.00
2018-11-03T08:05:16.452Z,5028.00
2018-11-03T08:06:16.817Z,5063.00
2018-11-03T08:07:17.148Z,5147.00
2018-11-03T08:08:17.466Z,5384.00
2018-11-03T08:09:18.045Z,5877.00
2018-11-03T08:10:19.598Z,8877.00
2018-11-03T08:11:19.189Z,13065.00
2018-11-03T08:12:19.091Z,65536.00
2018-11-03T08:13:19.715Z,65536.00
2018-11-03T08:14:20.056Z,65536.00
2018-11-03T08:15:20.272Z,65536.00
2018-11-03T08:16:20.548Z,65536.00
2018-11-03T08:17:20.659Z,65536.00
2018-11-03T08:18:21.194Z,65536.00
2018-11-03T08:19:20.993Z,65536.00
2018-11-03T08:20:21.193Z,65536.00
2018-11-03T08:21:21.611Z,65536.00
2018-11-03T08:22:21.718Z,65536.00
2018-11-03T08:23:21.621Z,65536.00
2018-11-03T08:24:22.047Z,65536.00
2018-11-03T08:25:22.304Z,65536.00
2018-11-03T08:26:22.514Z,65536.00
2018-11-03T08:27:22.713Z,65536.00
2018-11-03T08:28:22.964Z,65536.00
2018-11-03T08:29:23.104Z,65536.00
2018-11-03T08:30:23.303Z,65536.00
2018-11-03T08:31:23.739Z,65536.00
2018-11-03T08:32:23.872Z,65536.00
2018-11-03T08:33:24.014Z,65536.00
2018-11-03T08:34:24.077Z,65536.00
2018-11-03T08:35:24.309Z,65536.00
2018-11-03T08:36:24.487Z,65536.00
2018-11-03T08:37:24.820Z,65536.00
2018-11-03T08:38:24.615Z,11691.00
2018-11-03T08:39:25.230Z,8859.00
2018-11-03T08:40:25.022Z,9060.00
2018-11-03T08:41:25.364Z,7528.00
2018-11-03T08:42:25.662Z,8133.00
2018-11-03T08:43:26.158Z,7142.00
2018-11-03T08:44:26.450Z,7563.00
2018-11-03T08:45:26.861Z,7955.00
2018-11-03T08:46:27.153Z,9026.00
2018-11-03T08:47:27.546Z,7534.00
2018-11-03T08:48:28.004Z,7268.00
2018-11-03T08:49:28.389Z,7629.00
2018-11-03T08:50:28.406Z,7362.00
2018-11-03T08:51:28.702Z,8945.00
2018-11-03T08:52:28.990Z,8540.00
2018-11-03T08:53:29.425Z,9390.00
2018-11-03T08:54:29.627Z,9463.00
2018-11-03T08:55:29.950Z,8872.00
2018-11-03T08:56:30.237Z,8037.00
2018-11-03T08:57:30.589Z,10818.00
2018-11-03T08:58:31.069Z,8581.00
2018-11-03T08:59:31.429Z,8425.00
2018-11-03T09:00:31.869Z,7164.00
2018-11-03T09:01:32.252Z,6928.00
2018-11-03T09:02:32.662Z,6815.00
2018-11-03T09:03:33.763Z,6788.00
2018-11-03T09:04:33.676Z,6893.00
2018-11-03T09:05:34.291Z,7010.00
2018-11-03T09:06:34.607Z,7798.00
2018-11-03T09:07:34.815Z,9001.00
2018-11-03T09:08:35.125Z,7021.00
2018-11-03T09:09:35.344Z,7191.00
2018-11-03T09:10:36.033Z,6668.00
2018-11-03T09:11:35.904Z,7076.00
2018-11-03T09:12:36.114Z,6958.00
2018-11-03T09:13:36.486Z,6803.00
2018-11-03T09:14:36.689Z,6908.00
2018-11-03T09:15:36.528Z,6540.00
2018-11-03T09:16:37.006Z,7686.00
2018-11-03T09:17:37.308Z,6581.00
2018-11-03T09:18:37.484Z,6834.00
2018-11-03T09:19:37.719Z,6809.00
2018-11-03T09:20:38.025Z,6877.00
2018-11-03T09:22:38.269Z,7026.00
2018-11-03T09:23:38.546Z,6596.00
2018-11-03T09:24:38.791Z,6356.00
2018-11-03T09:25:39.094Z,6565.00
2018-11-03T09:26:38.999Z,6611.00
2018-11-03T09:27:39.779Z,6251.00
2018-11-03T09:28:39.636Z,7046.00
2018-11-03T09:29:39.977Z,7851.00
2018-11-03T09:30:40.333Z,7383.00
2018-11-03T09:31:40.822Z,6372.00
2018-11-03T09:32:41.074Z,6682.00
2018-11-03T09:33:41.568Z,6561.00
2018-11-03T09:34:42.061Z,7544.00
2018-11-03T09:35:42.467Z,8061.00
2018-11-03T09:36:42.452Z,10653.00
2018-11-03T09:37:42.870Z,8632.00
2018-11-03T09:38:43.293Z,10107.00
2018-11-03T09:39:43.874Z,10371.00
2018-11-03T09:40:43.795Z,8100.00
2018-11-03T09:41:44.194Z,8236.00
2018-11-03T09:42:44.661Z,7491.00
2018-11-03T09:43:45.004Z,6177.00
2018-11-03T09:44:44.991Z,6107.00
2018-11-03T09:45:45.340Z,6201.00
2018-11-03T09:46:45.644Z,6419.00
2018-11-03T09:47:46.258Z,6735.00
2018-11-03T09:48:46.314Z,6649.00
2018-11-03T09:49:46.178Z,6236.00
2018-11-03T09:50:46.612Z,6207.00
2018-11-03T09:52:47.012Z,6363.00
2018-11-03T09:53:46.899Z,6285.00
2018-11-03T09:55:47.291Z,6192.00
2018-11-03T09:56:47.787Z,6390.00
2018-11-03T09:57:48.763Z,6330.00
2018-11-03T09:58:48.925Z,6077.00
2018-11-03T09:59:49.185Z,6203.00
2018-11-03T10:00:49.716Z,6165.00
2018-11-03T10:01:50.220Z,7100.00
2018-11-03T10:02:50.436Z,7495.00
2018-11-03T10:03:50.642Z,9941.00
2018-11-03T10:04:50.935Z,8554.00
2018-11-03T10:05:51.266Z,6393.00
2018-11-03T10:06:51.289Z,7914.00
2018-11-03T10:08:51.220Z,10965.00
2018-11-03T10:09:51.908Z,10699.00
2018-11-03T10:10:52.149Z,10063.00
2018-11-03T10:11:52.126Z,8186.00
2018-11-03T10:12:52.334Z,7404.00
2018-11-03T10:13:52.516Z,6670.00
2018-11-03T10:14:52.612Z,6366.00
2018-11-03T10:15:52.766Z,6495.00
2018-11-03T10:16:52.974Z,7154.00
2018-11-03T10:17:53.115Z,7888.00
2018-11-03T10:18:53.219Z,7692.00
2018-11-03T10:19:53.592Z,7346.00
2018-11-03T10:20:53.856Z,7199.00
2018-11-03T10:21:54.034Z,7471.00
2018-11-03T10:22:54.088Z,7081.00
2018-11-03T10:23:54.123Z,6510.00
2018-11-03T10:24:54.260Z,6346.00
2018-11-03T10:25:54.247Z,6261.00
2018-11-03T10:26:54.624Z,6127.00
2018-11-03T10:27:55.156Z,6248.00
2018-11-03T10:28:55.035Z,6287.00
2018-11-03T10:29:55.653Z,6344.00
2018-11-03T10:30:55.710Z,6528.00
2018-11-03T10:31:55.925Z,6604.00
2018-11-03T10:32:56.424Z,7805.00
2018-11-03T10:33:56.838Z,8803.00
2018-11-03T10:34:57.231Z,9661.00
2018-11-03T10:35:57.716Z,8758.00
2018-11-03T10:36:58.033Z,9613.00
2018-11-03T10:37:58.382Z,6414.00
2018-11-03T10:38:58.709Z,6404.00
2018-11-03T10:39:59.104Z,6448.00
2018-11-03T10:40:59.516Z,6755.00
2018-11-03T10:41:59.944Z,6616.00
2018-11-03T10:43:00.297Z,6652.00
2018-11-03T10:44:00.666Z,6653.00
2018-11-03T10:45:01.085Z,6866.00
2018-11-03T10:46:01.731Z,7404.00
2018-11-03T10:47:01.888Z,6929.00
2018-11-03T10:48:02.298Z,7158.00
2018-11-03T10:49:02.450Z,6894.00
2018-11-03T10:50:03.375Z,6890.00
2018-11-03T10:51:04.063Z,7080.00
2018-11-03T10:52:04.381Z,7397.00
2018-11-03T10:53:04.480Z,7399.00
2018-11-03T10:54:04.592Z,8377.00
2018-11-03T10:55:05.313Z,8839.00
2018-11-03T10:56:05.369Z,9261.00
2018-11-03T10:57:05.442Z,8045.00
2018-11-03T10:58:05.531Z,7494.00
2018-11-03T10:59:06.112Z,6875.00
2018-11-03T11:00:06.062Z,6798.00
2018-11-03T11:01:06.169Z,6652.00
2018-11-03T11:02:06.397Z,6476.00
2018-11-03T11:03:07.000Z,6589.00
2018-11-03T11:04:06.237Z,6637.00
2018-11-03T11:05:06.919Z,6455.00
2018-11-03T11:06:06.935Z,6437.00
2018-11-03T11:07:07.123Z,6514.00
2018-11-03T11:08:07.295Z,6483.00
2018-11-03T11:09:07.285Z,6405.00
2018-11-03T11:10:07.581Z,6374.00
2018-11-03T11:11:07.817Z,6365.00
2018-11-03T11:12:08.116Z,6346.00
2018-11-03T11:13:08.129Z,6365.00
2018-11-03T11:14:08.520Z,6359.00
2018-11-03T11:15:09.275Z,6316.00
2018-11-03T11:16:09.188Z,6316.00
2018-11-03T11:17:09.264Z,6315.00
2018-11-03T11:18:09.463Z,6397.00
2018-11-03T11:19:09.406Z,6347.00
2018-11-03T11:20:09.832Z,6343.00
2018-11-03T11:21:10.178Z,6387.00
2018-11-03T11:22:10.541Z,6379.00
2018-11-03T11:23:10.949Z,6403.00
2018-11-03T11:24:11.481Z,6403.00
2018-11-03T11:25:11.785Z,6385.00
2018-11-03T11:26:12.143Z,6382.00
2018-11-03T11:27:12.536Z,6364.00
2018-11-03T11:28:12.972Z,6373.00
2018-11-03T11:29:13.391Z,6384.00
2018-11-03T11:30:13.275Z,6392.00
2018-11-03T11:31:13.675Z,6386.00
2018-11-03T11:32:13.986Z,6449.00
2018-11-03T11:33:14.300Z,6384.00
2018-11-03T11:34:14.540Z,6378.00
2018-11-03T11:35:15.497Z,6337.00
2018-11-03T11:36:15.484Z,6384.00
2018-11-03T11:37:15.858Z,6432.00
2018-11-03T11:38:16.283Z,6414.00
2018-11-03T11:39:16.727Z,6440.00
2018-11-03T11:40:17.173Z,6440.00
2018-11-03T11:41:17.123Z,6463.00
2018-11-03T11:42:17.608Z,6473.00
2018-11-03T11:43:17.553Z,6468.00
2018-11-03T11:44:17.774Z,6454.00
2018-11-03T11:45:19.151Z,6475.00
2018-11-03T11:46:19.361Z,6530.00
2018-11-03T11:47:19.377Z,6578.00
2018-11-03T11:48:19.695Z,6635.00
2018-11-03T11:49:19.417Z,6695.00
2018-11-03T11:50:20.311Z,6750.00
2018-11-03T11:51:20.521Z,6666.00
2018-11-03T11:52:20.835Z,6664.00
2018-11-03T11:53:21.262Z,6699.00
2018-11-03T11:54:21.566Z,6912.00
2018-11-03T11:55:21.459Z,7260.00
2018-11-03T11:56:21.781Z,7356.00
2018-11-03T11:57:22.258Z,7211.00
2018-11-03T11:58:22.447Z,7057.00
2018-11-03T11:59:22.663Z,7020.00
2018-11-03T12:00:22.824Z,7037.00
2018-11-03T12:01:23.250Z,7108.00
2018-11-03T12:02:23.506Z,7185.00
2018-11-03T12:03:23.771Z,7282.00
2018-11-03T12:04:24.111Z,7277.00
2018-11-03T12:05:24.134Z,7449.00
2018-11-03T12:06:24.238Z,7254.00
2018-11-03T12:07:24.146Z,7343.00
2018-11-03T12:08:24.817Z,7367.00
2018-11-03T12:09:24.592Z,7565.00
2018-11-03T12:10:24.792Z,7671.00
2018-11-03T12:11:25.183Z,7665.00
2018-11-03T12:12:25.750Z,8062.00
2018-11-03T12:13:25.923Z,8315.00
2018-11-03T12:14:25.826Z,8500.00
2018-11-03T12:15:26.234Z,8245.00
2018-11-03T12:16:26.730Z,8010.00
2018-11-03T12:17:27.089Z,7840.00
2018-11-03T12:18:27.399Z,8360.00
2018-11-03T12:19:27.797Z,8689.00
2018-11-03T12:20:28.103Z,8772.00
2018-11-03T12:21:29.570Z,8746.00
2018-11-03T12:22:28.890Z,8665.00
2018-11-03T12:23:29.298Z,8576.00
2018-11-03T12:24:29.678Z,8669.00
2018-11-03T12:25:30.116Z,8638.00
2018-11-03T12:26:30.411Z,8758.00
2018-11-03T12:27:30.954Z,9036.00
2018-11-03T12:28:30.868Z,9171.00
2018-11-03T12:29:31.148Z,8908.00
2018-11-03T12:30:31.563Z,8664.00
2018-11-03T12:31:32.055Z,8560.00
2018-11-03T12:32:32.408Z,8644.00
2018-11-03T12:33:33.108Z,8510.00
2018-11-03T12:34:33.406Z,8546.00
2018-11-03T12:35:33.928Z,8754.00
2018-11-03T12:36:34.240Z,8736.00
2018-11-03T12:37:34.443Z,8651.00
2018-11-03T12:38:34.670Z,8456.00
2018-11-03T12:39:35.080Z,8578.00
2018-11-03T12:40:35.436Z,8053.00
2018-11-03T12:41:35.596Z,7932.00
2018-11-03T12:42:35.612Z,8077.00
2018-11-03T12:43:36.029Z,8272.00
2018-11-03T12:44:35.669Z,8090.00
2018-11-03T12:45:36.236Z,7863.00
2018-11-03T12:46:36.650Z,7878.00
2018-11-03T12:47:36.761Z,7635.00
2018-11-03T12:48:36.884Z,7741.00